createdAt,value
2018-11-01T00:03:56.367Z,3.37
2018-11-01T00:09:00.149Z,2.80
2018-11-01T00:14:04.414Z,3.83
2018-11-01T00:19:07.984Z,3.77
2018-11-01T00:24:11.477Z,3.03
2018-11-01T00:29:14.860Z,4.13
2018-11-01T00:34:18.364Z,1.85
2018-11-01T00:39:21.756Z,4.13
2018-11-01T00:44:25.303Z,2.00
2018-11-01T00:49:28.821Z,1.60
2018-11-01T00:54:32.437Z,3.23
2018-11-01T00:59:35.881Z,5.20
2018-11-01T01:04:39.375Z,1.90
2018-11-01T01:09:42.768Z,2.27
2018-11-01T01:14:46.203Z,1.83
2018-11-01T01:19:49.640Z,2.53
2018-11-01T01:24:53.188Z,3.50
2018-11-01T01:29:56.632Z,1.90
2018-11-01T01:35:00.201Z,1.60
2018-11-01T01:40:03.692Z,7.17
2018-11-01T01:45:08.229Z,1.90
2018-11-01T01:50:13.206Z,2.53
2018-11-01T01:55:16.778Z,3.83
2018-11-01T02:00:20.851Z,3.77
2018-11-01T02:05:24.261Z,2.30
2018-11-01T02:10:27.665Z,2.50
2018-11-01T02:15:31.118Z,5.73
2018-11-01T02:20:34.605Z,3.03
2018-11-01T02:25:37.977Z,2.07
2018-11-01T02:30:41.398Z,1.93
2018-11-01T02:35:44.748Z,2.50
2018-11-01T02:40:48.154Z,2.33
2018-11-01T02:45:51.573Z,2.00
2018-11-01T02:50:55.077Z,2.83
2018-11-01T02:55:58.496Z,2.63
2018-11-01T03:01:02.036Z,3.20
2018-11-01T03:06:05.607Z,2.57
2018-11-01T03:11:09.128Z,4.70
2018-11-01T03:16:12.517Z,2.03
2018-11-01T03:21:15.909Z,2.47
2018-11-01T03:26:19.512Z,2.70
2018-11-01T03:31:23.040Z,2.22
2018-11-01T03:36:26.470Z,2.27
2018-11-01T03:41:29.959Z,2.47
2018-11-01T03:46:33.300Z,4.20
2018-11-01T03:51:36.730Z,2.60
2018-11-01T03:56:40.272Z,2.87
2018-11-01T04:01:43.806Z,3.20
2018-11-01T04:06:47.320Z,4.90
2018-11-01T04:11:50.728Z,3.57
2018-11-01T04:16:54.143Z,2.47
2018-11-01T04:22:02.871Z,4.03
2018-11-01T04:27:06.670Z,2.77
2018-11-01T04:32:10.073Z,2.43
2018-11-01T04:37:13.496Z,2.27
2018-11-01T04:42:16.892Z,2.93
2018-11-01T04:47:20.312Z,2.60
2018-11-01T04:52:23.574Z,2.40
2018-11-01T04:57:26.887Z,1.07
2018-11-01T05:02:30.395Z,4.87
2018-11-01T05:07:33.721Z,1.83
2018-11-01T05:12:37.706Z,2.17
2018-11-01T05:17:41.105Z,1.87
2018-11-01T05:22:44.593Z,4.60
2018-11-01T05:27:47.916Z,6.33
2018-11-01T05:32:51.368Z,3.97
2018-11-01T05:37:54.680Z,4.00
2018-11-01T05:42:58.102Z,9.28
2018-11-01T05:48:01.453Z,1.90
2018-11-01T05:53:05.247Z,2.53
2018-11-01T05:58:08.561Z,2.53
2018-11-01T06:03:11.933Z,3.87
2018-11-01T06:08:18.030Z,2.10
2018-11-01T06:13:21.574Z,8.47
2018-11-01T06:18:24.872Z,2.73
2018-11-01T06:23:28.156Z,7.10
2018-11-01T06:28:31.648Z,4.73
2018-11-01T06:33:35.152Z,5.20
2018-11-01T06:38:38.461Z,4.97
2018-11-01T06:43:41.792Z,4.12
2018-11-01T06:48:45.401Z,3.40
2018-11-01T06:53:48.742Z,7.40
2018-11-01T06:58:52.104Z,6.40
2018-11-01T07:03:55.583Z,9.67
2018-11-01T07:08:58.979Z,5.63
2018-11-01T07:14:02.328Z,5.17
2018-11-01T07:19:06.107Z,2.43
2018-11-01T07:24:09.527Z,5.40
2018-11-01T07:29:12.962Z,4.77
2018-11-01T07:34:16.428Z,4.97
2018-11-01T07:39:19.885Z,6.03
2018-11-01T07:44:23.274Z,5.63
2018-11-01T07:49:26.637Z,7.83
2018-11-01T07:54:30.069Z,5.90
2018-11-01T07:59:33.616Z,6.30
2018-11-01T08:04:36.941Z,5.77
2018-11-01T08:09:40.398Z,7.17
2018-11-01T08:14:43.888Z,12.85
2018-11-01T08:19:47.462Z,6.37
2018-11-01T08:24:50.800Z,5.87
2018-11-01T08:29:54.268Z,9.70
2018-11-01T08:34:57.780Z,9.43
2018-11-01T08:40:01.336Z,10.37
2018-11-01T08:45:05.742Z,12.13
2018-11-01T08:50:10.567Z,14.17
2018-11-01T08:55:14.313Z,9.60
2018-11-01T09:00:17.905Z,11.17
2018-11-01T09:05:21.420Z,13.60
2018-11-01T09:10:25.202Z,12.73
2018-11-01T09:15:28.575Z,4.77
2018-11-01T09:20:32.032Z,5.87
2018-11-01T09:25:35.472Z,9.53
2018-11-01T09:30:38.910Z,5.83
2018-11-01T09:35:42.374Z,6.17
2018-11-01T09:40:45.775Z,6.00
2018-11-01T09:45:49.377Z,7.37
2018-11-01T09:50:52.806Z,9.37
2018-11-01T09:55:56.399Z,15.90
2018-11-01T10:00:59.722Z,9.93
2018-11-01T10:06:03.180Z,9.77
2018-11-01T10:11:06.496Z,5.90
2018-11-01T10:16:09.956Z,4.93
2018-11-01T10:21:13.222Z,12.13
2018-11-01T10:26:16.662Z,8.80
2018-11-01T10:31:20.266Z,11.03
2018-11-01T10:36:23.814Z,23.70
2018-11-01T10:41:27.266Z,10.30
2018-11-01T10:46:30.563Z,6.57
2018-11-01T10:51:33.990Z,9.77
2018-11-01T10:56:37.481Z,10.43
2018-11-01T11:01:47.976Z,16.03
2018-11-01T11:06:51.345Z,9.57
2018-11-01T11:11:54.722Z,7.07
2018-11-01T11:16:59.080Z,12.40
2018-11-01T11:22:02.518Z,7.47
2018-11-01T11:27:06.388Z,9.80
2018-11-01T11:32:09.828Z,5.80
2018-11-01T11:37:13.219Z,5.40
2018-11-01T11:42:16.581Z,8.43
2018-11-01T11:47:19.953Z,8.57
2018-11-01T11:52:23.348Z,6.53
2018-11-01T11:57:26.821Z,11.00
2018-11-01T12:02:30.184Z,14.37
2018-11-01T12:07:33.628Z,10.63
2018-11-01T12:12:36.956Z,11.33
2018-11-01T12:17:40.293Z,13.30
2018-11-01T12:22:43.853Z,12.73
2018-11-01T12:27:47.261Z,11.93
2018-11-01T12:32:50.686Z,8.53
2018-11-01T12:37:54.231Z,7.33
2018-11-01T12:42:57.559Z,9.33
2018-11-01T12:48:01.033Z,6.33
2018-11-01T12:53:04.423Z,8.97
2018-11-01T12:58:07.837Z,8.63
2018-11-01T13:03:11.371Z,9.07
2018-11-01T13:08:14.765Z,7.20
2018-11-01T13:13:18.110Z,8.30
2018-11-01T13:18:21.626Z,7.93
2018-11-01T13:23:25.025Z,21.57
2018-11-01T13:28:28.409Z,21.53
2018-11-01T13:33:31.824Z,14.60
2018-11-01T13:38:35.265Z,13.60
2018-11-01T13:43:38.613Z,12.30
2018-11-01T13:48:42.119Z,15.07
2018-11-01T13:53:45.505Z,14.27
2018-11-01T13:58:48.841Z,11.83
2018-11-01T14:03:52.241Z,13.13
2018-11-01T14:08:55.706Z,13.87
2018-11-01T14:13:59.226Z,16.43
2018-11-01T14:19:02.465Z,9.63
2018-11-01T14:24:06.086Z,10.60
2018-11-01T14:29:09.473Z,6.70
2018-11-01T14:34:15.767Z,7.00
2018-11-01T14:39:19.093Z,9.50
2018-11-01T14:44:22.207Z,6.73
2018-11-01T14:49:25.731Z,8.50
2018-11-01T14:54:29.977Z,7.43
2018-11-01T14:59:34.416Z,11.00
2018-11-01T15:04:36.492Z,12.93
2018-11-01T15:09:40.025Z,15.60
2018-11-01T15:14:43.450Z,11.70
2018-11-01T15:19:46.888Z,11.77
2018-11-01T15:24:50.515Z,12.03
2018-11-01T15:29:53.723Z,19.90
2018-11-01T15:34:57.861Z,17.27
2018-11-01T15:40:01.580Z,13.87
2018-11-01T15:45:05.405Z,14.67
2018-11-01T15:50:09.717Z,10.13
2018-11-01T15:55:13.096Z,16.73
2018-11-01T16:00:16.589Z,9.83
2018-11-01T16:05:20.001Z,10.43
2018-11-01T16:10:23.496Z,12.87
2018-11-01T16:15:27.017Z,11.10
2018-11-01T16:20:30.484Z,15.37
2018-11-01T16:25:33.915Z,10.87
2018-11-01T16:30:37.349Z,9.87
2018-11-01T16:35:40.738Z,10.67
2018-11-01T16:40:44.181Z,10.67
2018-11-01T16:45:47.557Z,9.90
2018-11-01T16:50:51.037Z,10.73
2018-11-01T16:55:54.635Z,9.03
2018-11-01T17:00:58.137Z,11.67
2018-11-01T17:06:01.454Z,11.70
2018-11-01T17:11:04.872Z,10.30
2018-11-01T17:16:08.649Z,11.43
2018-11-01T17:21:12.121Z,5.40
2018-11-01T17:26:15.490Z,9.60
2018-11-01T17:31:19.012Z,7.57
2018-11-01T17:36:22.374Z,9.47
2018-11-01T17:41:25.945Z,9.53
2018-11-01T17:46:29.538Z,13.80
2018-11-01T17:51:32.962Z,14.50
2018-11-01T17:56:36.393Z,10.72
2018-11-01T18:01:39.994Z,12.57
2018-11-01T18:06:43.270Z,13.95
2018-11-01T18:11:46.624Z,10.00
2018-11-01T18:16:50.246Z,9.60
2018-11-01T18:21:53.766Z,10.93
2018-11-01T18:26:57.473Z,8.43
2018-11-01T18:32:01.043Z,5.37
2018-11-01T18:37:04.643Z,10.10
2018-11-01T18:42:08.202Z,7.40
2018-11-01T18:47:11.723Z,8.37
2018-11-01T18:52:15.185Z,8.10
2018-11-01T18:57:18.667Z,4.83
2018-11-01T19:02:22.020Z,9.57
2018-11-01T19:07:25.469Z,7.58
2018-11-01T19:12:29.165Z,7.57
2018-11-01T19:17:32.862Z,9.40
2018-11-01T19:22:37.534Z,16.63
2018-11-01T19:27:41.044Z,20.17
2018-11-01T19:32:44.472Z,16.13
2018-11-01T19:37:48.386Z,17.63
2018-11-01T19:42:51.646Z,18.00
2018-11-01T19:47:55.209Z,16.87
2018-11-01T19:52:59.189Z,18.20
2018-11-01T19:58:02.724Z,15.10
2018-11-01T20:03:06.300Z,10.60
2018-11-01T20:08:09.873Z,13.83
2018-11-01T20:13:13.191Z,7.87
2018-11-01T20:18:16.910Z,7.70
2018-11-01T20:23:20.590Z,9.10
2018-11-01T20:28:24.101Z,12.90
2018-11-01T20:33:27.726Z,7.50
2018-11-01T20:38:31.165Z,6.30
2018-11-01T20:43:35.068Z,4.43
2018-11-01T20:48:38.819Z,9.03
2018-11-01T20:53:42.311Z,10.37
2018-11-01T20:58:45.799Z,9.33
2018-11-01T21:03:49.446Z,13.13
2018-11-01T21:08:53.067Z,6.03
2018-11-01T21:13:56.751Z,5.90
2018-11-01T21:19:00.322Z,14.63
2018-11-01T21:24:03.946Z,10.80
2018-11-01T21:29:07.462Z,10.27
2018-11-01T21:34:11.077Z,12.53
2018-11-01T21:39:14.961Z,20.40
2018-11-01T21:44:18.635Z,19.67
2018-11-01T21:49:22.324Z,15.57
2018-11-01T21:54:26.289Z,21.20
2018-11-01T21:59:30.044Z,17.70
2018-11-01T22:04:33.468Z,8.63
2018-11-01T22:09:37.060Z,9.77
2018-11-01T22:14:40.730Z,14.40
2018-11-01T22:19:44.540Z,16.57
2018-11-01T22:24:47.924Z,13.60
2018-11-01T22:29:51.524Z,14.03
2018-11-01T22:34:55.178Z,10.83
2018-11-01T22:39:58.601Z,16.07
2018-11-01T22:45:02.341Z,10.53
2018-11-01T22:50:06.347Z,7.53
2018-11-01T22:55:10.947Z,7.53
2018-11-01T23:00:15.271Z,6.20
2018-11-01T23:05:18.681Z,7.07
2018-11-01T23:10:22.177Z,5.60
2018-11-01T23:15:25.519Z,10.90
2018-11-01T23:20:28.802Z,4.87
2018-11-01T23:25:32.109Z,6.00
2018-11-01T23:30:35.430Z,4.47
2018-11-01T23:35:38.772Z,3.43
2018-11-01T23:40:47.457Z,7.60
2018-11-01T23:45:56.296Z,4.90
2018-11-01T23:51:03.744Z,5.53
2018-11-01T23:56:07.170Z,6.17
